Time;durP1;ratioP1;P1;durP2;ratioP2;P2;SDS_P1;SDS_P2;PMS_P1;PMS_P2;Temp;Humidity;BMP_temperature;BMP_pressure;BME280_temperature;BME280_humidity;BME280_pressure;Samples;Min_cycle;Max_cycle;Signal;HPM_P1;HPM_P2
2022/06/07 00:00:20;;;;;;;7.30;3.70;;;19.40;73.10;;;;;;4886109;29;20535;-74
2022/06/07 00:02:48;;;;;;;4.60;2.50;;;19.40;73.20;;;;;;4879887;29;20476;-74
2022/06/07 00:05:16;;;;;;;10.97;3.07;;;19.40;73.20;;;;;;4882140;29;20523;-75
2022/06/07 00:07:44;;;;;;;5.30;3.13;;;19.50;73.20;;;;;;4887782;29;20478;-75
2022/06/07 00:10:12;;;;;;;4.67;2.90;;;19.40;73.30;;;;;;4889217;29;20820;-74
2022/06/07 00:12:40;;;;;;;5.43;3.53;;;19.40;73.30;;;;;;4884536;29;20491;-75
2022/06/07 00:15:10;;;;;;;5.50;2.73;;;19.40;73.30;;;;;;4871138;29;20455;-76
2022/06/07 00:17:38;;;;;;;5.40;2.50;;;19.40;73.40;;;;;;4888402;29;21017;-73
2022/06/07 00:20:08;;;;;;;7.07;2.63;;;19.40;73.50;;;;;;4887311;29;20468;-75
2022/06/07 00:22:36;;;;;;;5.03;3.03;;;19.40;73.50;;;;;;4882227;29;20472;-75
2022/06/07 00:25:07;;;;;;;7.10;3.33;;;19.40;73.60;;;;;;4887785;29;21092;-75
2022/06/07 00:27:35;;;;;;;7.73;3.50;;;19.40;73.60;;;;;;4890544;29;20487;-75
2022/06/07 00:30:05;;;;;;;5.33;2.70;;;19.40;73.70;;;;;;4883416;29;20514;-75
2022/06/07 00:32:36;;;;;;;5.00;2.40;;;19.30;73.70;;;;;;4862942;29;20490;-75
2022/06/07 00:35:06;;;;;;;5.27;2.77;;;19.40;73.70;;;;;;4862778;29;20473;-75
2022/06/07 00:37:34;;;;;;;5.70;2.30;;;19.40;73.70;;;;;;4887330;29;20490;-74
2022/06/07 00:40:02;;;;;;;6.10;3.30;;;19.40;73.80;;;;;;4884366;29;20482;-75
2022/06/07 00:42:30;;;;;;;5.60;2.60;;;19.40;73.80;;;;;;4859609;29;20785;-75
2022/06/07 00:44:59;;;;;;;4.40;2.40;;;19.40;73.80;;;;;;4876192;29;20594;-75
2022/06/07 00:47:30;;;;;;;5.27;2.50;;;19.40;73.80;;;;;;4867569;29;20509;-76
2022/06/07 00:50:02;;;;;;;7.97;2.40;;;19.40;73.80;;;;;;4864896;29;20535;-74
2022/06/07 00:52:32;;;;;;;5.20;2.20;;;19.40;73.70;;;;;;4858110;29;20831;-75
2022/06/07 00:55:01;;;;;;;4.40;2.13;;;19.40;73.70;;;;;;4867627;29;21041;-74
2022/06/07 00:57:36;;;;;;;5.07;2.20;;;19.40;73.70;;;;;;4878225;29;20484;-74
2022/06/07 01:00:13;;;;;;;4.90;2.60;;;19.40;73.60;;;;;;4862868;29;20563;-74
2022/06/07 01:02:41;;;;;;;7.10;2.73;;;19.50;73.50;;;;;;4859413;29;20492;-75
2022/06/07 01:05:11;;;;;;;5.57;2.33;;;19.50;73.50;;;;;;4883246;29;20912;-74
2022/06/07 01:10:46;;;;;;;5.43;2.10;;;19.50;73.30;;;;;;4865076;29;20545;-76
2022/06/07 01:13:28;;;;;;;7.30;2.97;;;19.50;73.30;;;;;;4868898;29;21046;-75
2022/06/07 01:16:04;;;;;;;5.30;2.20;;;19.50;73.30;;;;;;4879743;29;20469;-75
2022/06/07 01:18:36;;;;;;;5.00;2.10;;;19.50;73.20;;;;;;4867866;29;20584;-76
2022/06/07 01:21:15;;;;;;;5.30;2.17;;;19.40;73.20;;;;;;4868328;29;20467;-76
2022/06/07 01:23:45;;;;;;;3.97;1.80;;;19.40;73.20;;;;;;4869228;29;20463;-75
2022/06/07 01:26:15;;;;;;;4.90;2.50;;;19.40;73.20;;;;;;4864081;29;20488;-75
2022/06/07 01:28:43;;;;;;;7.13;2.57;;;19.40;73.20;;;;;;4865018;29;20461;-75
2022/06/07 01:31:12;;;;;;;5.10;2.97;;;19.30;73.30;;;;;;4862016;29;21209;-74
2022/06/07 01:33:40;;;;;;;5.10;2.50;;;19.30;73.40;;;;;;4881866;29;21081;-75
2022/06/07 01:36:14;;;;;;;4.10;2.00;;;19.30;73.40;;;;;;4860987;29;20539;-74
2022/06/07 01:38:44;;;;;;;6.10;2.20;;;19.30;73.40;;;;;;4867902;29;20618;-76
2022/06/07 01:43:59;;;;;;;6.53;2.00;;;19.30;73.40;;;;;;4879424;29;21063;-76
2022/06/07 01:46:30;;;;;;;5.20;2.10;;;19.20;73.40;;;;;;4856942;29;20511;-76
2022/06/07 01:48:58;;;;;;;6.13;2.43;;;19.20;73.40;;;;;;4879591;29;20477;-75
2022/06/07 01:51:27;;;;;;;4.80;2.00;;;19.20;73.50;;;;;;4863167;29;20467;-75
2022/06/07 01:53:55;;;;;;;3.90;1.80;;;19.20;73.50;;;;;;4883296;29;20458;-76
2022/06/07 01:56:23;;;;;;;6.33;2.47;;;19.20;73.60;;;;;;4885237;29;20462;-76
2022/06/07 01:58:53;;;;;;;6.00;2.70;;;19.20;73.60;;;;;;4872157;29;20473;-77
2022/06/07 02:01:21;;;;;;;5.07;2.47;;;19.20;73.60;;;;;;4865186;29;20473;-75
2022/06/07 02:03:50;;;;;;;6.17;2.83;;;19.20;73.70;;;;;;4879615;29;20764;-74
2022/06/07 02:06:18;;;;;;;5.67;2.07;;;19.20;73.70;;;;;;4865172;29;20506;-75
2022/06/07 02:08:49;;;;;;;5.43;2.33;;;19.20;73.80;;;;;;4869172;29;20462;-75
2022/06/07 02:11:19;;;;;;;5.40;2.20;;;19.20;73.90;;;;;;4870876;29;20969;-75
2022/06/07 02:13:55;;;;;;;4.20;2.47;;;19.10;74.00;;;;;;4866624;29;20470;-75
2022/06/07 02:16:24;;;;;;;4.80;2.03;;;19.10;74.00;;;;;;4870369;29;20464;-75
2022/06/07 02:18:53;;;;;;;8.63;2.80;;;19.10;74.10;;;;;;4864995;29;20474;-75
2022/06/07 02:21:27;;;;;;;4.53;2.13;;;19.10;74.10;;;;;;4866466;29;20562;-75
2022/06/07 02:23:58;;;;;;;4.80;2.17;;;19.10;74.20;;;;;;4868159;29;20495;-74
2022/06/07 02:26:29;;;;;;;11.17;2.50;;;19.10;74.30;;;;;;4883000;29;20482;-75
2022/06/07 02:29:00;;;;;;;5.33;2.10;;;19.10;74.40;;;;;;4866602;29;20519;-75
2022/06/07 02:31:31;;;;;;;5.90;2.73;;;19.10;74.50;;;;;;4886969;29;20473;-74
2022/06/07 02:34:01;;;;;;;7.53;2.30;;;19.00;74.70;;;;;;4881512;29;20468;-75
2022/06/07 02:36:31;;;;;;;7.37;2.30;;;19.00;74.70;;;;;;4879389;29;20478;-75
2022/06/07 02:39:01;;;;;;;10.00;2.43;;;19.00;74.80;;;;;;4882071;29;20490;-75
2022/06/07 02:41:32;;;;;;;5.40;2.00;;;19.00;74.90;;;;;;4886282;29;20466;-75
2022/06/07 02:44:01;;;;;;;4.40;2.70;;;19.00;75.00;;;;;;4879474;29;20467;-74
2022/06/07 02:46:35;;;;;;;5.53;2.07;;;18.90;75.00;;;;;;4876398;29;21054;-73
2022/06/07 02:49:04;;;;;;;4.07;2.10;;;18.90;75.10;;;;;;4884627;29;20480;-75
2022/06/07 02:51:33;;;;;;;5.23;2.20;;;18.90;75.00;;;;;;4862187;29;20471;-74
2022/06/07 02:54:07;;;;;;;4.50;2.27;;;18.80;75.00;;;;;;4858346;29;20922;-75
2022/06/07 02:56:35;;;;;;;6.00;2.10;;;18.80;75.10;;;;;;4882006;29;20551;-75
2022/06/07 02:59:03;;;;;;;4.73;1.80;;;18.80;75.20;;;;;;4877423;29;20464;-74
2022/06/07 03:01:32;;;;;;;4.00;2.03;;;18.80;75.20;;;;;;4864558;29;20499;-75
2022/06/07 03:04:02;;;;;;;4.57;2.17;;;18.80;75.20;;;;;;4860138;29;20846;-74
2022/06/07 03:06:33;;;;;;;5.03;1.53;;;18.80;75.20;;;;;;4867131;29;20479;-76
2022/06/07 03:09:03;;;;;;;7.27;2.10;;;18.70;75.20;;;;;;4871196;29;20467;-75
2022/06/07 03:11:32;;;;;;;7.70;2.10;;;18.70;75.20;;;;;;4871472;29;20845;-75
2022/06/07 03:14:01;;;;;;;5.00;2.10;;;18.70;75.20;;;;;;4870352;29;20465;-75
2022/06/07 03:16:30;;;;;;;4.60;2.13;;;18.60;75.30;;;;;;4871850;29;20575;-75
2022/06/07 03:19:03;;;;;;;7.20;1.97;;;18.60;75.30;;;;;;4875681;29;20561;-75
2022/06/07 03:21:37;;;;;;;3.80;1.60;;;18.60;75.40;;;;;;4869542;29;20463;-75
2022/06/07 03:24:05;;;;;;;4.90;1.70;;;18.60;75.30;;;;;;4871554;29;20541;-75
2022/06/07 03:26:35;;;;;;;8.07;1.93;;;18.50;75.40;;;;;;4871639;29;20478;-75
2022/06/07 03:29:08;;;;;;;15.83;2.30;;;18.50;75.40;;;;;;4870345;29;20554;-76
2022/06/07 03:31:36;;;;;;;3.67;1.30;;;18.50;75.40;;;;;;4874996;29;21019;-75
2022/06/07 03:34:07;;;;;;;4.60;1.57;;;18.40;75.40;;;;;;4871546;29;20541;-75
2022/06/07 03:36:40;;;;;;;3.93;1.90;;;18.40;75.40;;;;;;4872369;29;20504;-75
2022/06/07 03:39:10;;;;;;;5.30;2.23;;;18.40;75.60;;;;;;4875101;29;20497;-75
2022/06/07 03:41:45;;;;;;;4.30;2.10;;;18.40;75.60;;;;;;4864849;29;20554;-75
2022/06/07 03:44:18;;;;;;;8.07;2.23;;;18.40;75.60;;;;;;4866757;29;20493;-75
2022/06/07 03:46:53;;;;;;;4.00;1.80;;;18.40;75.60;;;;;;4861962;29;20507;-74
2022/06/07 03:49:23;;;;;;;6.73;2.13;;;18.40;75.60;;;;;;4873167;29;20486;-74
2022/06/07 03:51:55;;;;;;;4.53;1.83;;;18.40;75.80;;;;;;4869191;29;20821;-74
2022/06/07 03:54:23;;;;;;;4.60;1.90;;;18.30;75.90;;;;;;4874280;29;20462;-75
2022/06/07 03:56:53;;;;;;;5.20;1.90;;;18.40;76.00;;;;;;4869174;29;20515;-75
2022/06/07 03:59:24;;;;;;;5.00;1.90;;;18.40;76.00;;;;;;4874518;29;20464;-74
2022/06/07 04:01:52;;;;;;;7.27;2.30;;;18.40;76.00;;;;;;4868150;29;20525;-75
2022/06/07 04:04:20;;;;;;;5.90;1.63;;;18.40;76.00;;;;;;4867625;29;20492;-75
2022/06/07 04:09:39;;;;;;;8.93;1.77;;;18.30;75.90;;;;;;4872024;29;20467;-75
2022/06/07 04:12:16;;;;;;;4.37;1.80;;;18.30;76.00;;;;;;4881550;29;20529;-75
2022/06/07 04:14:46;;;;;;;7.70;1.53;;;18.30;76.00;;;;;;4871908;29;20523;-75
2022/06/07 04:17:15;;;;;;;5.37;1.90;;;18.30;76.00;;;;;;4866104;29;20547;-74
2022/06/07 04:19:48;;;;;;;3.57;1.37;;;18.30;76.00;;;;;;4872398;29;20549;-75
2022/06/07 04:22:18;;;;;;;5.03;2.27;;;18.30;76.00;;;;;;4880336;29;20547;-75
2022/06/07 04:24:53;;;;;;;5.00;1.50;;;18.30;76.00;;;;;;4874880;29;20470;-76
2022/06/07 04:27:24;;;;;;;4.27;1.47;;;18.30;76.10;;;;;;4865383;29;20484;-75
2022/06/07 04:29:56;;;;;;;6.47;2.10;;;18.30;76.00;;;;;;4870366;29;20494;-75
2022/06/07 04:32:24;;;;;;;5.17;1.93;;;18.40;76.00;;;;;;4875810;29;20492;-75
2022/06/07 04:34:54;;;;;;;5.67;1.43;;;18.40;76.00;;;;;;4869877;29;20529;-74
2022/06/07 04:37:24;;;;;;;6.60;1.43;;;18.40;76.00;;;;;;4872949;29;20486;-75
2022/06/07 04:39:58;;;;;;;3.50;1.40;;;18.40;76.00;;;;;;4872690;29;20470;-75
2022/06/07 04:42:28;;;;;;;6.97;1.40;;;18.30;75.90;;;;;;4874579;29;20463;-75
2022/06/07 04:45:01;;;;;;;4.70;1.57;;;18.40;75.80;;;;;;4873262;29;20532;-75
2022/06/07 04:47:39;;;;;;;5.00;1.50;;;18.40;75.80;;;;;;4867835;29;20573;-75
2022/06/07 04:50:12;;;;;;;5.00;1.70;;;18.40;75.60;;;;;;4875458;29;20465;-75
2022/06/07 04:52:40;;;;;;;5.27;1.50;;;18.40;75.60;;;;;;4866590;29;20458;-75
2022/06/07 04:55:09;;;;;;;6.13;1.70;;;18.40;75.60;;;;;;4874288;29;20462;-75
2022/06/07 04:57:39;;;;;;;7.17;1.77;;;18.40;75.60;;;;;;4889646;29;20483;-75
2022/06/07 05:00:13;;;;;;;4.80;1.43;;;18.50;75.40;;;;;;4870850;29;20469;-76
2022/06/07 05:02:43;;;;;;;6.20;1.53;;;18.50;75.40;;;;;;4870909;29;20504;-75
2022/06/07 05:05:13;;;;;;;4.07;1.60;;;18.50;75.40;;;;;;4872325;29;20819;-74
2022/06/07 05:07:43;;;;;;;8.20;1.60;;;18.50;75.40;;;;;;4870898;29;21055;-75
2022/06/07 05:10:16;;;;;;;4.10;1.70;;;18.60;75.30;;;;;;4865711;29;20467;-76
2022/06/07 05:12:51;;;;;;;4.70;1.70;;;18.60;75.30;;;;;;4871304;29;20469;-75
2022/06/07 05:15:22;;;;;;;5.50;1.50;;;18.70;75.40;;;;;;4874387;29;20458;-76
2022/06/07 05:18:01;;;;;;;3.80;1.63;;;18.70;75.40;;;;;;4866120;29;20490;-75
2022/06/07 05:20:32;;;;;;;3.77;1.47;;;18.80;75.40;;;;;;4873385;29;20549;-75
2022/06/07 05:23:08;;;;;;;9.63;2.30;;;18.80;75.30;;;;;;4865781;29;20498;-75
2022/06/07 05:25:41;;;;;;;3.87;1.73;;;18.90;75.30;;;;;;4874383;29;20475;-75
2022/06/07 05:28:12;;;;;;;5.13;1.90;;;18.90;75.30;;;;;;4873993;29;20482;-75
2022/06/07 05:30:40;;;;;;;3.70;1.80;;;18.90;75.40;;;;;;4869554;29;20477;-75
2022/06/07 05:33:15;;;;;;;4.83;1.70;;;18.90;75.40;;;;;;4874142;29;20470;-75
2022/06/07 05:35:49;;;;;;;3.50;1.60;;;19.00;75.40;;;;;;4871297;29;20460;-76
2022/06/07 05:38:21;;;;;;;4.33;1.57;;;19.00;75.30;;;;;;4874619;29;20899;-75
2022/06/07 05:40:57;;;;;;;5.10;1.53;;;19.00;75.30;;;;;;4868223;29;20522;-75
2022/06/07 05:43:27;;;;;;;3.90;1.37;;;19.00;75.20;;;;;;4876033;29;21124;-75
2022/06/07 05:46:00;;;;;;;4.00;1.50;;;19.00;75.20;;;;;;4864038;29;20606;-75
2022/06/07 05:48:54;;;;;;;4.03;1.40;;;19.10;75.10;;;;;;4878859;29;20589;-75
2022/06/07 05:51:33;;;;;;;5.83;1.13;;;19.10;75.10;;;;;;4869282;29;20471;-75
2022/06/07 05:54:01;;;;;;;5.43;1.63;;;19.20;75.40;;;;;;4869167;29;20470;-75
2022/06/07 05:56:29;;;;;;;3.70;1.27;;;19.30;75.50;;;;;;4868061;29;21001;-75
2022/06/07 05:59:00;;;;;;;3.57;1.33;;;19.60;75.70;;;;;;4869027;29;20548;-75
2022/06/07 06:01:28;;;;;;;4.20;1.67;;;19.90;74.70;;;;;;4867058;29;20480;-75
2022/06/07 06:04:03;;;;;;;4.73;1.30;;;19.90;74.20;;;;;;4863972;29;20471;-76
2022/06/07 06:06:38;;;;;;;4.53;1.87;;;19.90;73.80;;;;;;4870227;29;20986;-75
2022/06/07 06:11:57;;;;;;;5.40;1.53;;;19.70;73.90;;;;;;4867883;29;20480;-75
2022/06/07 06:14:35;;;;;;;5.17;1.70;;;19.60;73.90;;;;;;4873737;29;20474;-75
2022/06/07 06:17:10;;;;;;;7.80;1.90;;;19.60;74.10;;;;;;4864515;29;20483;-75
2022/06/07 06:19:46;;;;;;;6.63;1.70;;;19.60;74.10;;;;;;4889169;29;20473;-76
2022/06/07 06:22:15;;;;;;;6.97;1.60;;;19.60;74.10;;;;;;4871627;29;20523;-76
2022/06/07 06:24:50;;;;;;;6.60;1.40;;;19.60;74.10;;;;;;4868238;29;20559;-75
2022/06/07 06:27:19;;;;;;;47.00;32.17;;;19.60;74.20;;;;;;4872691;29;20493;-75
2022/06/07 06:29:51;;;;;;;16.50;11.50;;;19.60;74.40;;;;;;4870550;29;20487;-76
2022/06/07 06:32:19;;;;;;;8.23;3.50;;;19.70;74.70;;;;;;4877180;29;20466;-75
2022/06/07 06:34:51;;;;;;;4.00;1.70;;;19.80;74.60;;;;;;4872722;29;20522;-77
2022/06/07 06:37:21;;;;;;;5.07;1.90;;;20.00;74.40;;;;;;4876995;29;20496;-75
2022/06/07 06:39:49;;;;;;;3.60;1.43;;;20.10;74.10;;;;;;4890251;29;20482;-75
2022/06/07 06:42:17;;;;;;;5.27;1.70;;;20.10;74.00;;;;;;4868229;29;20469;-75
2022/06/07 06:45:11;;;;;;;5.40;1.67;;;20.20;73.50;;;;;;4879880;29;20478;-75
2022/06/07 06:47:44;;;;;;;3.40;1.13;;;20.20;73.50;;;;;;4866469;29;20518;-75
2022/06/07 06:50:13;;;;;;;3.50;1.40;;;20.20;73.50;;;;;;4877598;29;20509;-76
2022/06/07 06:52:42;;;;;;;4.27;1.10;;;20.30;73.30;;;;;;4890650;29;20482;-76
2022/06/07 06:55:11;;;;;;;5.13;1.50;;;20.30;73.20;;;;;;4889064;29;20467;-76
2022/06/07 06:57:40;;;;;;;4.90;1.40;;;20.30;73.10;;;;;;4874913;29;20522;-76
2022/06/07 07:00:13;;;;;;;4.60;1.67;;;20.40;73.00;;;;;;4873247;29;20463;-75
2022/06/07 07:02:43;;;;;;;10.87;2.07;;;20.40;73.10;;;;;;4869874;29;20541;-76
2022/06/07 07:05:15;;;;;;;5.60;1.27;;;20.40;72.90;;;;;;4875141;29;20465;-75
2022/06/07 07:07:49;;;;;;;3.67;1.33;;;20.50;72.60;;;;;;4876350;29;20600;-75
2022/06/07 07:10:24;;;;;;;4.10;1.50;;;20.40;72.40;;;;;;4872590;29;20539;-75
2022/06/07 07:12:52;;;;;;;5.10;1.67;;;20.40;72.40;;;;;;4872815;29;20468;-75
2022/06/07 07:15:31;;;;;;;5.20;1.60;;;20.50;72.30;;;;;;4875729;29;20479;-74
2022/06/07 07:18:06;;;;;;;3.97;1.67;;;20.50;72.30;;;;;;4868209;29;20498;-75
2022/06/07 07:20:41;;;;;;;3.77;1.43;;;20.50;72.20;;;;;;4876675;29;20465;-75
2022/06/07 07:23:09;;;;;;;4.30;1.73;;;20.50;72.00;;;;;;4875317;29;21201;-76
2022/06/07 07:25:39;;;;;;;5.00;1.50;;;20.50;72.00;;;;;;4878146;29;20477;-75
2022/06/07 07:28:07;;;;;;;4.90;1.63;;;20.60;72.00;;;;;;4875798;29;20854;-76
2022/06/07 07:30:37;;;;;;;3.93;1.53;;;20.60;71.80;;;;;;4872345;29;20562;-76
2022/06/07 07:33:05;;;;;;;3.90;1.43;;;20.60;71.70;;;;;;4875774;29;20505;-75
2022/06/07 07:35:34;;;;;;;5.17;1.47;;;20.60;71.70;;;;;;4888213;29;20451;-76
2022/06/07 07:38:05;;;;;;;4.40;1.50;;;20.70;71.50;;;;;;4888436;29;20477;-76
2022/06/07 07:40:35;;;;;;;4.30;1.20;;;20.70;71.20;;;;;;4870607;29;20509;-76
2022/06/07 07:43:05;;;;;;;3.57;1.23;;;20.60;71.10;;;;;;4877125;29;20826;-76
2022/06/07 07:45:37;;;;;;;4.70;1.47;;;20.60;71.10;;;;;;4869967;29;20510;-75
2022/06/07 07:48:10;;;;;;;4.90;1.30;;;20.70;70.90;;;;;;4869883;29;21237;-76
2022/06/07 07:50:41;;;;;;;3.40;1.00;;;20.70;70.70;;;;;;4876303;29;20496;-76
2022/06/07 07:53:12;;;;;;;3.70;1.20;;;20.70;70.60;;;;;;4868473;29;20526;-76
2022/06/07 07:55:44;;;;;;;6.17;1.60;;;20.80;70.50;;;;;;4877170;29;20458;-76
2022/06/07 07:58:12;;;;;;;4.73;1.30;;;20.90;70.30;;;;;;4870074;29;20554;-76
2022/06/07 08:00:44;;;;;;;4.00;1.33;;;20.90;70.10;;;;;;4875678;29;20877;-76
2022/06/07 08:03:12;;;;;;;3.53;1.30;;;20.90;70.00;;;;;;4868066;29;20475;-76
2022/06/07 08:05:45;;;;;;;3.40;1.30;;;20.90;69.90;;;;;;4894582;29;20571;-76
2022/06/07 08:08:13;;;;;;;4.40;1.40;;;21.00;69.80;;;;;;4889542;29;20486;-75
2022/06/07 08:10:41;;;;;;;5.87;1.40;;;21.00;69.80;;;;;;4889745;29;20489;-76
2022/06/07 08:13:09;;;;;;;4.37;1.60;;;21.10;69.80;;;;;;4889463;29;20463;-76
2022/06/07 08:15:37;;;;;;;4.83;1.50;;;21.10;69.20;;;;;;4891695;29;20486;-75
2022/06/07 08:18:07;;;;;;;5.20;1.30;;;21.00;68.60;;;;;;4887393;29;20489;-75
2022/06/07 08:20:38;;;;;;;4.40;1.30;;;21.00;68.50;;;;;;4892503;29;20452;-76
2022/06/07 08:23:07;;;;;;;3.80;1.20;;;20.90;68.80;;;;;;4890339;29;21340;-75
2022/06/07 08:25:38;;;;;;;4.03;1.50;;;20.80;68.60;;;;;;4893973;29;20489;-75
2022/06/07 08:28:06;;;;;;;3.67;1.23;;;20.80;68.70;;;;;;4891741;29;20500;-75
2022/06/07 08:30:36;;;;;;;4.90;1.33;;;20.70;68.70;;;;;;4881596;29;20476;-75
2022/06/07 08:38:36;;;;;;;3.83;0.90;;;20.80;68.40;;;;;;4864091;29;20485;-76
2022/06/07 08:41:05;;;;;;;5.47;1.13;;;20.90;68.20;;;;;;4870775;29;20473;-76
2022/06/07 08:43:34;;;;;;;4.27;1.10;;;20.90;68.00;;;;;;4889176;29;20466;-75
2022/06/07 08:46:02;;;;;;;4.60;1.37;;;21.00;67.90;;;;;;4880309;29;20474;-75
2022/06/07 08:48:33;;;;;;;5.23;1.20;;;21.00;67.80;;;;;;4887776;29;20508;-75
2022/06/07 08:51:13;;;;;;;3.40;0.97;;;21.10;67.60;;;;;;4880810;29;20496;-76
2022/06/07 08:53:45;;;;;;;3.57;1.17;;;21.10;67.60;;;;;;4888797;29;20446;-75
2022/06/07 08:56:17;;;;;;;4.40;1.13;;;21.20;67.40;;;;;;4886645;29;20546;-76
2022/06/07 08:58:49;;;;;;;3.80;0.93;;;21.20;67.40;;;;;;4884815;29;20481;-75
2022/06/07 09:01:28;;;;;;;3.33;1.00;;;21.30;67.30;;;;;;4890286;29;20487;-75
2022/06/07 09:04:10;;;;;;;3.77;0.80;;;21.40;67.10;;;;;;4871714;29;20458;-75
2022/06/07 09:06:44;;;;;;;3.30;1.10;;;21.40;66.90;;;;;;4888345;29;20531;-75
2022/06/07 09:09:13;;;;;;;6.50;1.20;;;21.40;66.70;;;;;;4889579;29;20463;-75
2022/06/07 09:14:36;;;;;;;3.40;0.90;;;21.50;66.20;;;;;;4888816;29;20479;-74
2022/06/07 09:17:10;;;;;;;6.17;1.07;;;21.40;65.80;;;;;;4872316;29;20488;-74
2022/06/07 09:19:39;;;;;;;4.40;0.80;;;21.40;65.70;;;;;;4892164;29;21173;-75
2022/06/07 09:22:16;;;;;;;5.30;1.07;;;21.40;65.40;;;;;;4887421;29;20466;-75
2022/06/07 09:24:53;;;;;;;4.03;0.97;;;21.50;65.40;;;;;;4893803;29;20463;-76
2022/06/07 09:27:25;;;;;;;3.30;1.00;;;21.50;65.40;;;;;;4873137;29;20483;-75
2022/06/07 09:29:55;;;;;;;4.87;0.87;;;21.60;65.30;;;;;;4887286;29;20476;-75
2022/06/07 09:32:26;;;;;;;4.37;1.30;;;21.70;65.20;;;;;;4887040;29;20492;-76
2022/06/07 09:35:00;;;;;;;3.10;0.87;;;21.70;64.90;;;;;;4877713;29;20563;-75
2022/06/07 09:37:31;;;;;;;3.30;0.97;;;21.70;64.80;;;;;;4874859;29;20544;-75
2022/06/07 09:40:22;;;;;;;4.37;1.00;;;21.80;64.40;;;;;;4875767;29;20460;-74
2022/06/07 09:42:54;;;;;;;4.20;1.20;;;21.80;64.50;;;;;;4890950;29;20459;-75
2022/06/07 09:45:27;;;;;;;4.97;0.90;;;21.80;64.60;;;;;;4884132;29;20985;-75
2022/06/07 09:47:55;;;;;;;3.63;1.23;;;21.90;64.40;;;;;;4866195;29;20853;-75
2022/06/07 09:50:31;;;;;;;3.77;1.00;;;21.90;64.20;;;;;;4889851;29;20491;-75
2022/06/07 09:53:07;;;;;;;3.40;0.87;;;21.90;64.30;;;;;;4884195;29;20470;-75
2022/06/07 09:55:40;;;;;;;3.40;0.80;;;21.90;63.60;;;;;;4890692;29;20458;-75
2022/06/07 09:58:29;;;;;;;3.10;0.90;;;21.90;63.60;;;;;;4882544;29;20475;-75
2022/06/07 10:01:04;;;;;;;3.40;1.00;;;21.90;62.10;;;;;;4888915;29;20486;-75
2022/06/07 10:03:40;;;;;;;4.47;1.17;;;21.90;63.20;;;;;;4883224;29;20455;-75
2022/06/07 10:06:21;;;;;;;4.70;0.83;;;21.90;62.80;;;;;;4870792;29;20539;-74
2022/06/07 10:09:20;;;;;;;6.20;1.00;;;21.90;62.90;;;;;;4863816;29;20472;-75
2022/06/07 10:11:58;;;;;;;3.10;0.90;;;21.90;62.90;;;;;;4887420;29;20492;-75
2022/06/07 10:14:37;;;;;;;4.97;0.90;;;21.90;62.80;;;;;;4873613;29;20873;-75
2022/06/07 10:17:43;;;;;;;3.50;1.13;;;22.00;62.70;;;;;;4882295;29;20875;-75
2022/06/07 10:20:20;;;;;;;3.30;0.80;;;22.00;62.60;;;;;;4878282;29;20548;-75
2022/06/07 10:23:05;;;;;;;3.53;1.07;;;22.10;62.50;;;;;;4888983;29;20548;-75
2022/06/07 10:25:39;;;;;;;3.17;0.80;;;22.10;62.10;;;;;;4892292;29;20454;-74
2022/06/07 10:28:18;;;;;;;3.47;1.00;;;22.10;62.10;;;;;;4890502;29;20478;-76
2022/06/07 10:30:53;;;;;;;3.40;1.00;;;22.20;62.00;;;;;;4869677;29;20519;-75
2022/06/07 10:33:46;;;;;;;4.70;0.80;;;22.20;61.90;;;;;;4872263;29;20462;-76
2022/06/07 10:36:30;;;;;;;3.53;1.10;;;22.20;61.80;;;;;;4883955;29;20537;-76
2022/06/07 10:39:21;;;;;;;3.30;1.00;;;22.20;61.70;;;;;;4890379;29;20454;-75
2022/06/07 10:41:58;;;;;;;3.67;0.93;;;22.20;61.70;;;;;;4876531;29;20471;-76
2022/06/07 10:44:33;;;;;;;3.23;0.90;;;22.10;61.60;;;;;;4865696;29;20485;-75
2022/06/07 10:47:13;;;;;;;3.77;1.10;;;22.10;61.70;;;;;;4880336;29;20489;-76
2022/06/07 10:49:49;;;;;;;4.33;0.87;;;22.10;61.60;;;;;;4870353;29;20893;-76
2022/06/07 10:52:29;;;;;;;5.00;1.07;;;22.10;61.70;;;;;;4877254;29;20917;-77
2022/06/07 10:55:06;;;;;;;3.40;1.00;;;22.10;61.60;;;;;;4886536;29;20461;-76
2022/06/07 10:57:41;;;;;;;3.73;1.10;;;22.10;61.70;;;;;;4883943;29;20478;-76
2022/06/07 11:00:30;;;;;;;4.50;1.00;;;22.10;61.90;;;;;;4883359;29;20474;-77
2022/06/07 11:03:06;;;;;;;3.70;1.33;;;22.20;61.70;;;;;;4879705;29;20582;-74
2022/06/07 11:11:16;;;;;;;4.00;1.17;;;22.20;61.70;;;;;;4878830;29;20510;-77
2022/06/07 11:13:59;;;;;;;4.63;1.10;;;22.20;61.70;;;;;;4868339;29;20470;-77
2022/06/07 11:16:35;;;;;;;4.33;1.10;;;22.20;61.80;;;;;;4883616;29;20473;-74
2022/06/07 11:19:04;;;;;;;5.30;1.30;;;22.20;61.70;;;;;;4890910;29;20517;-76
2022/06/07 11:21:34;;;;;;;3.93;1.30;;;22.30;61.70;;;;;;4894389;29;20465;-75
2022/06/07 11:24:08;;;;;;;4.70;1.00;;;22.30;61.60;;;;;;4887525;29;20469;-75
2022/06/07 11:27:04;;;;;;;3.67;1.17;;;22.30;61.40;;;;;;4876617;29;20466;-76
2022/06/07 11:29:33;;;;;;;4.63;1.50;;;22.40;61.30;;;;;;4885600;29;20457;-76
2022/06/07 11:32:03;;;;;;;6.30;1.60;;;22.40;61.20;;;;;;4869521;29;20540;-76
2022/06/07 11:34:34;;;;;;;3.60;0.90;;;22.40;60.80;;;;;;4883911;29;20469;-76
2022/06/07 11:37:26;;;;;;;6.93;1.50;;;22.40;61.00;;;;;;4883333;29;20474;-75
2022/06/07 11:39:56;;;;;;;3.30;1.10;;;22.40;61.10;;;;;;4890837;29;20462;-75
2022/06/07 11:42:33;;;;;;;4.37;1.27;;;22.40;61.10;;;;;;4887919;29;20450;-76
2022/06/07 11:45:20;;;;;;;4.43;1.30;;;22.40;61.00;;;;;;4882454;29;20540;-76
2022/06/07 11:48:11;;;;;;;5.30;1.20;;;22.50;61.00;;;;;;4886258;29;20472;-76
2022/06/07 11:50:46;;;;;;;4.80;1.00;;;22.50;61.00;;;;;;4886188;29;20474;-76
2022/06/07 11:53:22;;;;;;;6.57;1.43;;;22.50;61.10;;;;;;4886107;29;20455;-76
2022/06/07 11:55:57;;;;;;;5.93;1.17;;;22.50;61.00;;;;;;4894044;29;20473;-76
2022/06/07 11:58:52;;;;;;;12.33;1.77;;;22.60;61.00;;;;;;4882895;29;20504;-76
2022/06/07 12:01:32;;;;;;;6.30;1.43;;;22.60;60.70;;;;;;4881323;29;20471;-75
2022/06/07 12:04:33;;;;;;;4.70;1.27;;;22.50;60.90;;;;;;4873897;29;20862;-76
2022/06/07 12:07:15;;;;;;;3.60;1.00;;;22.50;61.00;;;;;;4882037;29;20482;-75
2022/06/07 12:09:48;;;;;;;6.50;1.33;;;22.50;61.10;;;;;;4873191;29;20518;-76
2022/06/07 12:12:23;;;;;;;3.40;1.00;;;22.50;61.10;;;;;;4887673;29;20852;-77
2022/06/07 12:15:00;;;;;;;6.33;1.50;;;22.50;61.20;;;;;;4894989;29;20446;-76
2022/06/07 12:17:30;;;;;;;10.43;1.60;;;22.50;61.40;;;;;;4859772;29;20838;-77
2022/06/07 12:19:59;;;;;;;5.37;1.17;;;22.50;61.40;;;;;;4891386;29;20486;-76
2022/06/07 12:22:40;;;;;;;5.20;1.20;;;22.50;61.20;;;;;;4888834;29;20484;-77
2022/06/07 12:25:16;;;;;;;237.20;18.83;;;22.60;61.20;;;;;;4884934;29;20509;-77
2022/06/07 12:27:47;;;;;;;66.47;8.60;;;22.60;61.30;;;;;;4889187;29;20481;-77
2022/06/07 12:30:25;;;;;;;26.13;2.40;;;22.70;61.20;;;;;;4879107;29;20992;-76
2022/06/07 12:32:54;;;;;;;7.53;1.47;;;22.70;61.10;;;;;;4890851;29;20551;-76
2022/06/07 12:35:25;;;;;;;6.80;1.47;;;22.70;61.20;;;;;;4884417;29;21104;-76
2022/06/07 12:37:56;;;;;;;3.33;0.93;;;22.70;61.20;;;;;;4884456;29;20497;-77
2022/06/07 12:40:35;;;;;;;4.60;1.20;;;22.80;61.20;;;;;;4875745;29;20459;-77
2022/06/07 12:43:04;;;;;;;3.80;1.50;;;22.80;61.10;;;;;;4877043;29;20450;-75
2022/06/07 12:45:37;;;;;;;8.63;1.33;;;22.80;61.00;;;;;;4884162;29;20472;-77
2022/06/07 12:48:14;;;;;;;6.17;1.00;;;22.80;60.90;;;;;;4874200;29;22162;-75
2022/06/07 12:50:44;;;;;;;5.80;1.33;;;22.90;60.90;;;;;;4870998;29;20477;-76
2022/06/07 12:53:20;;;;;;;4.33;1.30;;;22.90;60.90;;;;;;4879556;29;20486;-77
2022/06/07 12:55:56;;;;;;;4.73;1.60;;;22.90;61.00;;;;;;4886970;29;20475;-77
2022/06/07 12:58:28;;;;;;;3.97;0.90;;;22.90;61.00;;;;;;4864535;29;20490;-77
2022/06/07 13:00:57;;;;;;;3.90;1.10;;;23.00;61.10;;;;;;4886081;29;20937;-76
2022/06/07 13:03:29;;;;;;;4.13;1.10;;;23.00;61.10;;;;;;4873651;29;20533;-74
2022/06/07 13:06:00;;;;;;;5.00;1.10;;;23.10;61.20;;;;;;4871957;29;21141;-76
2022/06/07 13:08:34;;;;;;;7.37;1.10;;;23.20;61.20;;;;;;4884455;29;20851;-76
2022/06/07 13:11:05;;;;;;;4.40;1.17;;;23.30;61.00;;;;;;4885538;29;20457;-77
2022/06/07 13:13:36;;;;;;;3.60;1.03;;;23.30;61.00;;;;;;4887142;29;20823;-75
2022/06/07 13:16:30;;;;;;;4.07;0.87;;;23.40;60.60;;;;;;4878240;29;20899;-75
2022/06/07 13:19:03;;;;;;;5.63;1.10;;;23.40;60.50;;;;;;4883971;29;20503;-74
2022/06/07 13:21:34;;;;;;;4.20;1.17;;;23.30;60.60;;;;;;4885773;29;20465;-77
2022/06/07 13:24:02;;;;;;;5.50;1.20;;;23.30;60.60;;;;;;4881300;29;21019;-76
2022/06/07 13:26:33;;;;;;;3.70;1.20;;;23.30;60.50;;;;;;4891456;29;20504;-76
2022/06/07 13:29:08;;;;;;;3.67;1.00;;;23.30;60.40;;;;;;4881519;29;20510;-77
2022/06/07 13:31:52;;;;;;;4.60;1.10;;;23.30;60.50;;;;;;4873514;29;20474;-77
2022/06/07 13:34:23;;;;;;;4.83;1.00;;;23.30;60.50;;;;;;4884136;29;20471;-76
2022/06/07 13:37:15;;;;;;;9.17;1.00;;;23.30;60.50;;;;;;4890653;29;20915;-76
2022/06/07 13:39:58;;;;;;;3.13;0.70;;;23.30;60.60;;;;;;4885966;29;20463;-76